Terminal Aerodrome Forecast
Issued by NWS

Home | Current Version | Previous Version | Graphics & Text | Print | Product List | Glossary On
Versions: 1 2 3 4 5 6 7 8 9 10 11 12 13 14 15 16
677
FTUS43 KMPX 252338
TAFAXN
TAF
KAXN 252338Z 2600/2624 21007KT P6SM SCT100
     FM261200 23007KT P6SM BKN090 PROB30 2612/2616 -SHRA BKN050
     FM261800 25009KT P6SM SCT100 BKN250=

USA.gov is the U.S. government's official web portal to all federal, state and local government web resources and services.